createdAt,value
2023-04-22T00:00:20.672Z,9.50
2023-04-22T00:02:49.066Z,9.20
2023-04-22T00:08:15.472Z,9.30
2023-04-22T00:10:43.759Z,9.90
2023-04-22T00:13:12.270Z,9.90
2023-04-22T00:15:40.576Z,9.20
2023-04-22T00:18:14.130Z,10.40
2023-04-22T00:20:43.930Z,10.00
2023-04-22T00:23:12.676Z,10.30
2023-04-22T00:25:40.902Z,9.70
2023-04-22T00:28:09.180Z,9.30
2023-04-22T00:30:37.658Z,10.20
2023-04-22T00:33:05.902Z,9.30
2023-04-22T00:35:34.793Z,9.40
2023-04-22T00:38:02.949Z,9.60
2023-04-22T00:40:31.417Z,10.40
2023-04-22T00:43:00.014Z,9.70
2023-04-22T00:45:28.142Z,9.90
2023-04-22T00:47:56.291Z,10.30
2023-04-22T00:50:24.719Z,9.80
2023-04-22T00:52:52.938Z,9.10
2023-04-22T00:55:21.272Z,9.90
2023-04-22T00:57:49.959Z,9.70
2023-04-22T01:00:20.152Z,9.70
2023-04-22T01:02:48.732Z,10.10
2023-04-22T01:05:17.060Z,9.60
2023-04-22T01:07:45.617Z,9.90
2023-04-22T01:10:13.986Z,10.10
2023-04-22T01:12:42.211Z,8.80
2023-04-22T01:15:11.521Z,9.70
2023-04-22T01:17:39.784Z,10.30
2023-04-22T01:20:10.681Z,10.90
2023-04-22T01:22:42.569Z,9.50
2023-04-22T01:27:41.061Z,9.90
2023-04-22T01:30:09.686Z,9.10
2023-04-22T01:35:09.971Z,8.40
2023-04-22T01:37:38.272Z,9.70
2023-04-22T01:40:08.000Z,8.70
2023-04-22T01:42:36.273Z,8.50
2023-04-22T01:45:05.788Z,9.40
2023-04-22T01:47:34.041Z,9.30
2023-04-22T01:50:02.196Z,9.50
2023-04-22T01:52:31.139Z,9.20
2023-04-22T01:54:59.452Z,8.50
2023-04-22T01:57:27.571Z,8.70
2023-04-22T01:59:56.032Z,8.30
2023-04-22T02:02:24.255Z,8.40
2023-04-22T02:04:52.744Z,7.70
2023-04-22T02:07:21.090Z,8.40
2023-04-22T02:09:50.921Z,8.30
2023-04-22T02:12:19.267Z,8.50
2023-04-22T02:14:47.397Z,8.30
2023-04-22T02:17:17.942Z,8.30
2023-04-22T02:19:47.079Z,8.20
2023-04-22T02:22:15.265Z,8.10
2023-04-22T02:24:43.512Z,7.90
2023-04-22T02:27:11.812Z,8.00
2023-04-22T02:29:40.634Z,8.80
2023-04-22T02:32:09.550Z,8.70
2023-04-22T02:34:39.133Z,7.60
2023-04-22T02:37:07.216Z,8.00
2023-04-22T02:39:35.528Z,8.40
2023-04-22T02:42:03.753Z,9.20
2023-04-22T02:44:31.889Z,8.40
2023-04-22T02:47:00.291Z,8.90
2023-04-22T02:49:28.544Z,8.90
2023-04-22T02:51:57.391Z,8.50
2023-04-22T02:54:25.545Z,8.50
2023-04-22T02:56:53.620Z,8.30
2023-04-22T02:59:22.025Z,8.30
2023-04-22T03:01:50.400Z,8.00
2023-04-22T03:04:30.248Z,8.60
2023-04-22T03:06:59.833Z,8.70
2023-04-22T03:09:28.141Z,7.80
2023-04-22T03:11:56.413Z,7.90
2023-04-22T03:14:24.788Z,8.60
2023-04-22T03:16:55.337Z,8.80
2023-04-22T03:19:23.862Z,8.00
2023-04-22T03:21:52.076Z,8.90
2023-04-22T03:24:21.868Z,8.60
2023-04-22T03:26:51.511Z,7.50
2023-04-22T03:29:19.995Z,8.40
2023-04-22T03:31:48.169Z,8.40
2023-04-22T03:34:16.544Z,8.40
2023-04-22T03:36:45.844Z,7.90
2023-04-22T03:39:14.191Z,8.40
2023-04-22T03:41:42.996Z,8.30
2023-04-22T03:44:11.537Z,9.10
2023-04-22T03:46:39.854Z,7.40
2023-04-22T03:49:17.107Z,8.40
2023-04-22T03:51:45.327Z,8.90
2023-04-22T03:54:16.781Z,9.30
2023-04-22T03:56:51.387Z,8.20
2023-04-22T03:59:20.480Z,8.20
2023-04-22T04:01:50.843Z,8.10
2023-04-22T04:06:56.691Z,9.10
2023-04-22T04:09:24.994Z,8.90
2023-04-22T04:11:53.463Z,8.70
2023-04-22T04:14:21.902Z,9.20
2023-04-22T04:16:52.499Z,8.20
2023-04-22T04:19:26.308Z,8.80
2023-04-22T04:21:54.561Z,8.60
2023-04-22T04:24:23.537Z,8.80
2023-04-22T04:26:53.769Z,8.40
2023-04-22T04:29:27.220Z,8.60
2023-04-22T04:32:08.698Z,8.80
2023-04-22T04:34:37.867Z,8.80
2023-04-22T04:37:07.304Z,8.20
2023-04-22T04:39:43.715Z,8.50
2023-04-22T04:42:14.537Z,8.40
2023-04-22T04:44:51.152Z,8.10
2023-04-22T04:47:20.318Z,8.70
2023-04-22T04:49:50.305Z,8.70
2023-04-22T04:52:18.460Z,8.40
2023-04-22T04:54:46.734Z,9.60
2023-04-22T04:57:14.953Z,7.90
2023-04-22T04:59:43.226Z,8.60
2023-04-22T05:02:11.961Z,8.60
2023-04-22T05:04:40.347Z,8.90
2023-04-22T05:07:08.658Z,8.20
2023-04-22T05:09:38.399Z,8.80
2023-04-22T05:12:07.702Z,9.40
2023-04-22T05:14:36.372Z,9.30
2023-04-22T05:17:04.714Z,10.10
2023-04-22T05:19:33.093Z,9.80
2023-04-22T05:22:01.410Z,9.50
2023-04-22T05:24:30.440Z,8.90
2023-04-22T05:27:00.584Z,9.50
2023-04-22T05:29:30.355Z,8.70
2023-04-22T05:31:58.673Z,8.70
2023-04-22T05:34:27.011Z,9.10
2023-04-22T05:36:55.314Z,9.60
2023-04-22T05:39:23.891Z,8.10
2023-04-22T05:41:52.582Z,8.70
2023-04-22T05:44:21.092Z,8.70
2023-04-22T05:46:49.483Z,9.00
2023-04-22T05:49:17.774Z,8.70
2023-04-22T05:52:04.504Z,8.80
2023-04-22T05:54:40.981Z,8.90
2023-04-22T05:57:09.613Z,8.40
2023-04-22T05:59:38.649Z,8.20
2023-04-22T06:02:07.563Z,8.60
2023-04-22T06:04:37.795Z,8.70
2023-04-22T06:07:06.478Z,8.60
2023-04-22T06:09:34.682Z,8.70
2023-04-22T06:12:04.146Z,7.50
2023-04-22T06:14:32.483Z,8.60
2023-04-22T06:17:00.728Z,7.90
2023-04-22T06:19:29.064Z,8.70
2023-04-22T06:21:57.723Z,8.20
2023-04-22T06:24:26.015Z,7.90
2023-04-22T06:26:58.253Z,8.00
2023-04-22T06:29:27.510Z,8.40
2023-04-22T06:31:55.947Z,7.90
2023-04-22T06:34:24.613Z,6.90
2023-04-22T06:36:54.015Z,7.20
2023-04-22T06:39:24.102Z,8.40
2023-04-22T06:41:55.238Z,7.50
2023-04-22T06:44:52.804Z,8.20
2023-04-22T06:47:33.356Z,8.00
2023-04-22T06:50:14.552Z,8.00
2023-04-22T06:52:55.054Z,7.90
2023-04-22T06:55:24.345Z,7.60
2023-04-22T06:57:52.668Z,7.60
2023-04-22T07:00:21.007Z,8.20
2023-04-22T07:02:49.259Z,8.30
2023-04-22T07:05:17.663Z,7.60
2023-04-22T07:07:47.127Z,7.70
2023-04-22T07:10:19.332Z,7.60
2023-04-22T07:13:07.023Z,8.10
2023-04-22T07:15:35.337Z,7.40
2023-04-22T07:18:03.915Z,9.20
2023-04-22T07:20:32.089Z,7.70
2023-04-22T07:23:00.348Z,7.60
2023-04-22T07:25:28.586Z,8.10
2023-04-22T07:27:56.770Z,7.90
2023-04-22T07:30:25.001Z,7.70
2023-04-22T07:32:53.350Z,7.70
2023-04-22T07:35:21.681Z,8.60
2023-04-22T07:37:49.858Z,7.90
2023-04-22T07:40:18.146Z,8.20
2023-04-22T07:42:46.458Z,8.00
2023-04-22T07:45:14.834Z,7.90
2023-04-22T07:47:43.279Z,9.40
2023-04-22T07:50:11.635Z,8.60
2023-04-22T07:52:39.811Z,7.90
2023-04-22T07:55:08.606Z,7.60
2023-04-22T07:57:38.963Z,8.30
2023-04-22T08:00:08.224Z,7.40
2023-04-22T08:02:44.304Z,7.70
2023-04-22T08:05:12.773Z,8.00
2023-04-22T08:07:41.144Z,8.50
2023-04-22T08:10:10.008Z,8.80
2023-04-22T08:12:38.283Z,8.90
2023-04-22T08:15:06.938Z,7.70
2023-04-22T08:17:35.410Z,8.90
2023-04-22T08:20:06.524Z,8.10
2023-04-22T08:22:36.859Z,8.20
2023-04-22T08:25:06.916Z,8.90
2023-04-22T08:27:35.638Z,8.90
2023-04-22T08:30:04.576Z,8.00
2023-04-22T08:32:33.865Z,8.40
2023-04-22T08:35:04.909Z,9.00
2023-04-22T08:37:34.468Z,9.00
2023-04-22T08:40:04.808Z,8.40
2023-04-22T08:42:33.097Z,8.40
2023-04-22T08:45:03.194Z,8.80
2023-04-22T08:47:33.156Z,8.10
2023-04-22T08:50:02.412Z,8.20
2023-04-22T08:52:31.382Z,7.90
2023-04-22T08:54:59.748Z,8.60
2023-04-22T08:57:28.056Z,8.20
2023-04-22T08:59:56.466Z,7.50
2023-04-22T09:02:25.051Z,7.80
2023-04-22T09:04:56.065Z,8.20
2023-04-22T09:07:25.833Z,7.90
2023-04-22T09:09:57.303Z,8.60
2023-04-22T09:12:25.638Z,8.30
2023-04-22T09:14:54.788Z,7.90
2023-04-22T09:17:33.290Z,8.00
2023-04-22T09:20:02.323Z,8.40
2023-04-22T09:22:38.553Z,8.50
2023-04-22T09:25:15.177Z,9.00
2023-04-22T09:27:43.632Z,9.10
2023-04-22T09:30:11.932Z,8.00
2023-04-22T09:32:40.206Z,8.50
2023-04-22T09:35:08.784Z,7.60
2023-04-22T09:37:46.505Z,7.30
2023-04-22T09:40:18.915Z,8.00
2023-04-22T09:42:51.569Z,8.20
2023-04-22T09:45:39.513Z,7.50
2023-04-22T09:48:15.387Z,7.50
2023-04-22T09:50:48.302Z,6.90
2023-04-22T09:53:17.744Z,8.40
2023-04-22T09:55:50.659Z,7.30
2023-04-22T09:58:20.326Z,7.80
2023-04-22T10:00:53.476Z,7.30
2023-04-22T10:03:22.607Z,7.20
2023-04-22T10:05:51.252Z,7.10
2023-04-22T10:08:19.481Z,7.20
2023-04-22T10:10:47.846Z,7.60
2023-04-22T10:13:17.178Z,7.40
2023-04-22T10:15:52.395Z,6.10
2023-04-22T10:18:23.360Z,6.30
2023-04-22T10:20:51.778Z,7.10
2023-04-22T10:23:21.393Z,6.20
2023-04-22T10:25:53.767Z,6.30
2023-04-22T10:28:23.427Z,6.90
2023-04-22T10:30:51.741Z,6.50
2023-04-22T10:33:24.138Z,5.70
2023-04-22T10:36:19.899Z,6.40
2023-04-22T10:38:50.887Z,6.40
2023-04-22T10:41:23.300Z,6.30
2023-04-22T10:44:01.388Z,5.30
2023-04-22T10:46:40.152Z,5.20
2023-04-22T10:49:18.230Z,4.70
2023-04-22T10:51:47.939Z,5.10
2023-04-22T10:54:31.483Z,5.90
2023-04-22T10:57:02.241Z,5.50
2023-04-22T10:59:35.226Z,5.70
2023-04-22T11:02:06.763Z,5.60
2023-04-22T11:04:35.680Z,5.90
2023-04-22T11:07:20.860Z,5.40
2023-04-22T11:09:53.422Z,5.50
2023-04-22T11:12:39.671Z,5.40
2023-04-22T11:15:17.157Z,6.50
2023-04-22T11:17:51.362Z,4.90
2023-04-22T11:20:19.680Z,5.80
2023-04-22T11:22:50.064Z,4.90
2023-04-22T11:25:18.350Z,5.60
2023-04-22T11:27:46.805Z,5.30
2023-04-22T11:30:16.356Z,5.00
2023-04-22T11:32:47.788Z,4.80
2023-04-22T11:35:24.730Z,5.10
2023-04-22T11:38:04.179Z,5.50
2023-04-22T11:40:35.823Z,4.70
2023-04-22T11:43:07.310Z,5.00
2023-04-22T11:45:36.663Z,4.70
2023-04-22T11:48:06.297Z,5.30
2023-04-22T11:50:36.308Z,5.20
2023-04-22T11:53:06.126Z,5.30
2023-04-22T11:55:35.989Z,5.10
2023-04-22T11:58:10.947Z,5.30
2023-04-22T12:00:47.404Z,5.40
2023-04-22T12:03:28.816Z,5.00
2023-04-22T12:05:59.446Z,4.90
2023-04-22T12:08:33.150Z,5.00
2023-04-22T12:11:03.858Z,5.60
2023-04-22T12:13:42.619Z,5.60
2023-04-22T12:16:20.331Z,4.70
2023-04-22T12:18:51.800Z,5.00
2023-04-22T12:21:24.990Z,4.50
2023-04-22T12:24:01.071Z,4.50
2023-04-22T12:26:29.544Z,4.70
2023-04-22T12:28:59.000Z,4.50
2023-04-22T12:31:27.415Z,4.30
2023-04-22T12:33:56.347Z,4.70
2023-04-22T12:36:25.258Z,4.60
2023-04-22T12:38:53.433Z,5.40
2023-04-22T12:41:23.145Z,4.40
2023-04-22T12:43:52.883Z,5.10
2023-04-22T12:46:21.208Z,5.00
2023-04-22T12:48:49.446Z,4.60
2023-04-22T12:51:17.790Z,4.20
2023-04-22T12:53:46.250Z,4.20
2023-04-22T12:56:14.893Z,4.60
2023-04-22T12:58:43.111Z,4.70
2023-04-22T13:01:11.354Z,4.60
2023-04-22T13:03:39.652Z,4.20
2023-04-22T13:06:07.951Z,4.60
2023-04-22T13:08:36.970Z,3.90
2023-04-22T13:11:05.122Z,4.10
2023-04-22T13:13:33.258Z,4.10
2023-04-22T13:16:02.110Z,4.90
2023-04-22T13:18:32.181Z,4.20
2023-04-22T13:21:00.523Z,4.20
2023-04-22T13:23:28.994Z,4.00
2023-04-22T13:25:57.126Z,3.90
2023-04-22T13:28:25.854Z,3.30
2023-04-22T13:30:55.476Z,4.10
2023-04-22T13:33:23.769Z,4.20
2023-04-22T13:35:51.972Z,3.80
2023-04-22T13:38:23.072Z,3.60
2023-04-22T13:40:51.296Z,3.60
2023-04-22T13:43:19.504Z,3.80
2023-04-22T13:45:48.514Z,3.60
2023-04-22T13:48:16.884Z,3.80
2023-04-22T13:50:45.081Z,4.00
2023-04-22T13:53:14.257Z,3.30
2023-04-22T13:55:43.445Z,3.80
2023-04-22T13:58:11.613Z,3.10
2023-04-22T14:00:39.941Z,3.10
2023-04-22T14:03:08.198Z,3.00
2023-04-22T14:05:37.082Z,3.00
2023-04-22T14:08:05.449Z,2.90
2023-04-22T14:10:33.820Z,3.00
2023-04-22T14:13:02.278Z,2.70
2023-04-22T14:15:30.433Z,2.80
2023-04-22T14:17:58.689Z,2.10
2023-04-22T14:20:27.142Z,2.00
2023-04-22T14:22:56.139Z,1.90
2023-04-22T14:25:24.418Z,2.40
2023-04-22T14:27:52.600Z,1.60
2023-04-22T14:30:22.008Z,1.50
2023-04-22T14:32:50.589Z,1.50
2023-04-22T14:35:19.048Z,1.50
2023-04-22T14:37:49.516Z,1.40
2023-04-22T14:40:17.838Z,1.30
2023-04-22T14:42:46.289Z,1.50
2023-04-22T14:45:14.833Z,1.30
2023-04-22T14:47:43.687Z,1.40
2023-04-22T14:50:12.036Z,1.50
2023-04-22T14:52:41.338Z,1.50
2023-04-22T14:55:19.902Z,1.80
2023-04-22T14:57:56.922Z,1.50
2023-04-22T15:00:26.053Z,2.10
2023-04-22T15:02:54.951Z,1.40
2023-04-22T15:05:23.704Z,1.80
2023-04-22T15:07:51.922Z,1.50
2023-04-22T15:10:20.370Z,1.60
2023-04-22T15:12:48.579Z,1.60
2023-04-22T15:15:18.108Z,1.70
2023-04-22T15:17:46.269Z,1.80
2023-04-22T15:20:14.772Z,1.50
2023-04-22T15:22:43.966Z,1.60
2023-04-22T15:25:12.109Z,1.60
2023-04-22T15:27:40.596Z,1.50
2023-04-22T15:30:11.151Z,1.60
2023-04-22T15:32:40.196Z,1.60
2023-04-22T15:35:08.783Z,2.20
2023-04-22T15:37:37.249Z,2.00
2023-04-22T15:40:07.048Z,1.90
2023-04-22T15:42:35.259Z,1.60
2023-04-22T15:45:04.149Z,1.60
2023-04-22T15:47:33.514Z,1.70
2023-04-22T15:50:09.455Z,1.90
2023-04-22T15:52:38.794Z,1.80
2023-04-22T15:55:07.868Z,6.50
2023-04-22T15:57:37.059Z,2.40
2023-04-22T16:00:13.102Z,1.90
2023-04-22T16:02:44.889Z,2.00
2023-04-22T16:05:14.823Z,2.00
2023-04-22T16:07:43.488Z,1.60
2023-04-22T16:10:12.129Z,1.70
2023-04-22T16:12:42.124Z,1.80
2023-04-22T16:15:11.123Z,1.50
2023-04-22T16:17:40.471Z,1.60
2023-04-22T16:20:09.657Z,1.70
2023-04-22T16:22:38.219Z,2.10
2023-04-22T16:25:07.052Z,2.00
2023-04-22T16:27:35.560Z,1.90
2023-04-22T16:30:04.144Z,2.20
2023-04-22T16:32:33.086Z,2.30
2023-04-22T16:35:01.518Z,1.90
2023-04-22T16:37:31.153Z,2.00
2023-04-22T16:39:59.388Z,2.00
2023-04-22T16:42:27.768Z,1.90
2023-04-22T16:44:56.030Z,1.70
2023-04-22T16:47:24.484Z,1.80
2023-04-22T16:49:52.758Z,1.90
2023-04-22T16:52:21.628Z,2.60
2023-04-22T16:54:51.628Z,2.20
2023-04-22T16:57:19.786Z,2.10
2023-04-22T16:59:50.452Z,2.10
2023-04-22T17:02:21.266Z,1.70
2023-04-22T17:04:50.699Z,2.20
2023-04-22T17:07:23.525Z,2.20
2023-04-22T17:09:57.196Z,2.30
2023-04-22T17:12:30.339Z,2.30
2023-04-22T17:15:12.648Z,2.20
2023-04-22T17:17:53.841Z,2.70
2023-04-22T17:20:22.290Z,4.70
2023-04-22T17:22:51.885Z,2.50
2023-04-22T17:25:20.170Z,2.30
2023-04-22T17:27:48.712Z,2.20
2023-04-22T17:30:16.958Z,2.60
2023-04-22T17:32:45.502Z,2.70
2023-04-22T17:35:13.636Z,3.10
2023-04-22T17:37:41.873Z,2.90
2023-04-22T17:40:11.305Z,3.00
2023-04-22T17:42:45.598Z,3.00
2023-04-22T17:45:14.582Z,3.10
2023-04-22T17:47:42.701Z,2.80
2023-04-22T17:50:11.263Z,2.80
2023-04-22T17:52:40.826Z,3.70
2023-04-22T17:55:09.602Z,5.30
2023-04-22T17:57:59.965Z,4.10
2023-04-22T18:03:08.238Z,4.30
2023-04-22T18:05:43.157Z,3.80
2023-04-22T18:08:11.429Z,3.50
2023-04-22T18:10:46.174Z,3.40
2023-04-22T18:13:14.527Z,3.20
2023-04-22T18:15:42.614Z,3.60
2023-04-22T18:18:10.723Z,3.80
2023-04-22T18:20:38.965Z,3.40
2023-04-22T18:23:07.118Z,3.60
2023-04-22T18:25:35.739Z,3.40
2023-04-22T18:28:04.064Z,3.50
2023-04-22T18:30:32.896Z,3.50
2023-04-22T18:33:01.216Z,3.40
2023-04-22T18:35:29.673Z,3.40
2023-04-22T18:37:57.737Z,3.40
2023-04-22T18:40:25.989Z,3.90
2023-04-22T18:42:54.216Z,4.00
2023-04-22T18:45:23.227Z,3.50
2023-04-22T18:47:51.558Z,3.70
2023-04-22T18:50:19.974Z,3.70
2023-04-22T18:52:48.494Z,3.20
2023-04-22T18:55:16.653Z,4.20
2023-04-22T18:57:44.913Z,4.00
2023-04-22T19:00:13.583Z,3.90
2023-04-22T19:02:42.578Z,3.70
2023-04-22T19:05:11.293Z,3.80
2023-04-22T19:07:42.566Z,3.60
2023-04-22T19:10:12.627Z,4.40
2023-04-22T19:12:41.124Z,4.40
2023-04-22T19:15:09.825Z,4.10
2023-04-22T19:17:38.778Z,3.60
2023-04-22T19:20:08.386Z,4.10
2023-04-22T19:22:37.084Z,4.50
2023-04-22T19:25:06.583Z,5.10
2023-04-22T19:27:35.214Z,5.00
2023-04-22T19:30:05.090Z,13.20
2023-04-22T19:32:33.805Z,10.10
2023-04-22T19:35:04.052Z,4.90
2023-04-22T19:37:34.263Z,5.00
2023-04-22T19:40:02.392Z,5.30
2023-04-22T19:42:30.845Z,5.00
2023-04-22T19:44:59.707Z,5.30
2023-04-22T19:47:28.060Z,5.50
2023-04-22T19:49:56.689Z,5.20
2023-04-22T19:52:24.971Z,5.50
2023-04-22T19:54:56.271Z,5.20
2023-04-22T19:57:25.048Z,6.50
2023-04-22T19:59:54.244Z,8.10
2023-04-22T20:02:23.934Z,8.90
2023-04-22T20:04:52.347Z,8.40
2023-04-22T20:07:20.779Z,8.70
2023-04-22T20:09:48.859Z,8.00
2023-04-22T20:12:17.267Z,9.30
2023-04-22T20:14:46.119Z,8.10
2023-04-22T20:17:14.491Z,8.30
2023-04-22T20:19:45.131Z,7.70
2023-04-22T20:22:14.779Z,9.00
2023-04-22T20:24:43.064Z,8.00
2023-04-22T20:27:11.596Z,7.60
2023-04-22T20:29:40.054Z,8.10
2023-04-22T20:32:09.674Z,7.50
2023-04-22T20:34:38.506Z,7.70
2023-04-22T20:37:10.504Z,7.60
2023-04-22T20:39:38.747Z,7.70
2023-04-22T20:42:07.321Z,7.40
2023-04-22T20:44:35.497Z,6.90
2023-04-22T20:47:03.681Z,7.90
2023-04-22T20:49:32.496Z,8.10
2023-04-22T20:52:01.226Z,8.00
2023-04-22T20:54:30.438Z,8.00
2023-04-22T20:56:59.040Z,7.70
2023-04-22T20:59:27.794Z,6.60
2023-04-22T21:01:55.945Z,7.30
2023-04-22T21:04:24.885Z,6.90
2023-04-22T21:06:55.816Z,6.20
2023-04-22T21:09:27.201Z,7.70
2023-04-22T21:11:55.795Z,6.30
2023-04-22T21:14:26.432Z,6.90
2023-04-22T21:17:05.214Z,6.90
2023-04-22T21:19:34.328Z,6.60
2023-04-22T21:22:05.194Z,5.90
2023-04-22T21:24:35.065Z,7.10
2023-04-22T21:27:03.730Z,6.30
2023-04-22T21:29:32.791Z,6.60
2023-04-22T21:32:07.979Z,5.80
2023-04-22T21:34:38.054Z,5.10
2023-04-22T21:37:07.153Z,5.50
2023-04-22T21:39:35.500Z,5.50
2023-04-22T21:42:07.953Z,4.80
2023-04-22T21:44:37.689Z,6.30
2023-04-22T21:47:06.816Z,6.30
2023-04-22T21:49:35.060Z,6.20
2023-04-22T21:52:03.456Z,6.20
2023-04-22T21:54:31.656Z,6.80
2023-04-22T21:57:01.366Z,6.50
2023-04-22T21:59:29.847Z,5.90
2023-04-22T22:01:58.136Z,5.70
2023-04-22T22:04:26.474Z,5.70
2023-04-22T22:06:54.650Z,5.20
2023-04-22T22:09:23.016Z,5.60
2023-04-22T22:11:51.078Z,4.90
2023-04-22T22:14:19.245Z,5.00
2023-04-22T22:16:47.423Z,5.50
2023-04-22T22:19:15.995Z,5.90
2023-04-22T22:21:44.061Z,5.20
2023-04-22T22:24:12.343Z,5.40
2023-04-22T22:26:42.111Z,5.60
2023-04-22T22:29:15.456Z,5.70
2023-04-22T22:31:44.462Z,6.00
2023-04-22T22:34:12.534Z,5.50
2023-04-22T22:36:41.294Z,5.60
2023-04-22T22:39:12.013Z,6.10
2023-04-22T22:41:42.411Z,6.50
2023-04-22T22:44:12.404Z,6.50
2023-04-22T22:46:40.783Z,6.00
2023-04-22T22:49:11.610Z,6.70
2023-04-22T22:51:39.624Z,6.80
2023-04-22T22:54:12.172Z,7.00
2023-04-22T22:56:41.204Z,7.00
2023-04-22T22:59:09.893Z,6.00
2023-04-22T23:01:38.317Z,6.50
2023-04-22T23:04:07.566Z,6.20
2023-04-22T23:09:21.473Z,4.80
2023-04-22T23:11:51.906Z,5.80
2023-04-22T23:14:20.298Z,6.00
2023-04-22T23:16:48.736Z,5.60
2023-04-22T23:19:20.099Z,5.40
2023-04-22T23:21:49.019Z,6.00
2023-04-22T23:24:17.501Z,6.60
2023-04-22T23:26:46.140Z,6.00
2023-04-22T23:29:14.520Z,6.10
2023-04-22T23:31:42.649Z,5.70
2023-04-22T23:34:10.832Z,6.20
2023-04-22T23:36:39.457Z,5.70
2023-04-22T23:39:09.795Z,5.80
2023-04-22T23:41:38.026Z,6.30
2023-04-22T23:44:06.674Z,4.80
2023-04-22T23:46:35.904Z,6.30
2023-04-22T23:49:04.288Z,6.20
2023-04-22T23:51:34.408Z,5.70
2023-04-22T23:54:02.604Z,5.60
2023-04-22T23:56:31.422Z,5.90
2023-04-22T23:58:59.969Z,5.90
